Terminal Aerodrome Forecast
Issued by NWS Cleveland, OH

Home | Current Version | Previous Version | Text Only | Print | Product List | Glossary Off
Versions: 1 2 3 4 5 6 7 8 9 10 11 12 13 14 15 16 17 18 19 20 21 22 23 24 25 26

000
FTUS41 KCLE 251138
TAFCLE
TAF
KCLE 251138Z 2512/2618 25012KT P6SM SCT040 BKN100
     FM251400 25015G22KT P6SM BKN025
     FM251700 25020G30KT 6SM -SHSN BKN025
      TEMPO 2519/2522 6SM -SHRASN SCT025 BKN035
     FM260000 27015G22KT P6SM BKN025
     FM260500 28012KT P6SM BKN025=

USA.gov is the U.S. government's official web portal to all federal, state and local government web resources and services.